sensor_id;sensor_type;location;lat;lon;timestamp;P1;durP1;ratioP1;P2;durP2;ratioP2
72337;SDS011;60294;64.134;-21.862;2022-09-06T00:00:05;2.80;;;1.48;;
72337;SDS011;60294;64.134;-21.862;2022-09-06T00:02:34;3.28;;;1.30;;
72337;SDS011;60294;64.134;-21.862;2022-09-06T00:05:00;1.83;;;1.08;;
72337;SDS011;60294;64.134;-21.862;2022-09-06T00:07:26;4.50;;;1.25;;
72337;SDS011;60294;64.134;-21.862;2022-09-06T00:09:52;4.80;;;1.67;;
72337;SDS011;60294;64.134;-21.862;2022-09-06T00:12:18;5.03;;;1.20;;
72337;SDS011;60294;64.134;-21.862;2022-09-06T00:14:44;4.13;;;1.95;;
72337;SDS011;60294;64.134;-21.862;2022-09-06T00:17:10;4.65;;;1.42;;
72337;SDS011;60294;64.134;-21.862;2022-09-06T00:19:37;5.20;;;1.67;;
72337;SDS011;60294;64.134;-21.862;2022-09-06T00:22:03;8.43;;;1.60;;
72337;SDS011;60294;64.134;-21.862;2022-09-06T00:24:28;2.20;;;1.52;;
72337;SDS011;60294;64.134;-21.862;2022-09-06T00:26:54;2.70;;;1.48;;
72337;SDS011;60294;64.134;-21.862;2022-09-06T00:29:20;2.42;;;1.05;;
72337;SDS011;60294;64.134;-21.862;2022-09-06T00:31:46;3.47;;;0.98;;
72337;SDS011;60294;64.134;-21.862;2022-09-06T00:34:11;5.00;;;1.15;;
72337;SDS011;60294;64.134;-21.862;2022-09-06T00:36:37;2.05;;;1.10;;
72337;SDS011;60294;64.134;-21.862;2022-09-06T00:39:03;1.35;;;0.80;;
72337;SDS011;60294;64.134;-21.862;2022-09-06T00:41:29;3.42;;;1.10;;
72337;SDS011;60294;64.134;-21.862;2022-09-06T00:43:55;2.83;;;1.05;;
72337;SDS011;60294;64.134;-21.862;2022-09-06T00:46:22;2.72;;;1.08;;
72337;SDS011;60294;64.134;-21.862;2022-09-06T00:48:53;4.10;;;0.90;;
72337;SDS011;60294;64.134;-21.862;2022-09-06T00:51:24;1.67;;;0.80;;
72337;SDS011;60294;64.134;-21.862;2022-09-06T00:53:53;2.22;;;1.00;;
72337;SDS011;60294;64.134;-21.862;2022-09-06T00:56:20;1.30;;;0.70;;
72337;SDS011;60294;64.134;-21.862;2022-09-06T00:58:46;6.80;;;1.30;;
72337;SDS011;60294;64.134;-21.862;2022-09-06T01:01:12;2.95;;;1.05;;
72337;SDS011;60294;64.134;-21.862;2022-09-06T01:03:38;1.92;;;1.23;;
72337;SDS011;60294;64.134;-21.862;2022-09-06T01:09:01;2.17;;;0.98;;
72337;SDS011;60294;64.134;-21.862;2022-09-06T01:14:06;1.75;;;0.73;;
72337;SDS011;60294;64.134;-21.862;2022-09-06T01:16:38;3.45;;;1.08;;
72337;SDS011;60294;64.134;-21.862;2022-09-06T01:22:21;4.10;;;0.95;;
72337;SDS011;60294;64.134;-21.862;2022-09-06T01:30:24;2.38;;;0.90;;
72337;SDS011;60294;64.134;-21.862;2022-09-06T01:32:52;2.97;;;1.00;;
72337;SDS011;60294;64.134;-21.862;2022-09-06T01:35:34;4.15;;;0.77;;
72337;SDS011;60294;64.134;-21.862;2022-09-06T01:38:08;4.47;;;1.30;;
72337;SDS011;60294;64.134;-21.862;2022-09-06T01:40:34;2.30;;;1.48;;
72337;SDS011;60294;64.134;-21.862;2022-09-06T01:43:01;3.35;;;1.00;;
72337;SDS011;60294;64.134;-21.862;2022-09-06T01:57:07;2.72;;;1.00;;
72337;SDS011;60294;64.134;-21.862;2022-09-06T02:05:15;4.63;;;1.40;;
72337;SDS011;60294;64.134;-21.862;2022-09-06T02:08:00;1.60;;;0.93;;
72337;SDS011;60294;64.134;-21.862;2022-09-06T02:10:39;3.25;;;1.10;;
72337;SDS011;60294;64.134;-21.862;2022-09-06T02:13:09;4.43;;;1.00;;
72337;SDS011;60294;64.134;-21.862;2022-09-06T02:15:37;2.58;;;1.00;;
72337;SDS011;60294;64.134;-21.862;2022-09-06T02:18:12;2.92;;;1.00;;
72337;SDS011;60294;64.134;-21.862;2022-09-06T02:20:58;1.70;;;0.90;;
72337;SDS011;60294;64.134;-21.862;2022-09-06T02:23:27;2.28;;;0.90;;
72337;SDS011;60294;64.134;-21.862;2022-09-06T02:25:59;4.30;;;1.00;;
72337;SDS011;60294;64.134;-21.862;2022-09-06T02:30:57;2.65;;;1.45;;
72337;SDS011;60294;64.134;-21.862;2022-09-06T02:33:29;2.03;;;0.77;;
72337;SDS011;60294;64.134;-21.862;2022-09-06T02:36:01;3.25;;;1.00;;
72337;SDS011;60294;64.134;-21.862;2022-09-06T02:38:29;3.05;;;1.20;;
72337;SDS011;60294;64.134;-21.862;2022-09-06T02:40:58;2.42;;;0.90;;
72337;SDS011;60294;64.134;-21.862;2022-09-06T02:43:25;4.50;;;0.90;;
72337;SDS011;60294;64.134;-21.862;2022-09-06T02:45:51;2.00;;;0.93;;
72337;SDS011;60294;64.134;-21.862;2022-09-06T02:48:17;2.90;;;0.90;;
72337;SDS011;60294;64.134;-21.862;2022-09-06T02:50:42;1.77;;;0.90;;
72337;SDS011;60294;64.134;-21.862;2022-09-06T02:53:09;2.13;;;1.05;;
72337;SDS011;60294;64.134;-21.862;2022-09-06T02:55:37;1.27;;;0.82;;
72337;SDS011;60294;64.134;-21.862;2022-09-06T02:58:03;2.90;;;1.30;;
72337;SDS011;60294;64.134;-21.862;2022-09-06T03:00:31;3.63;;;1.00;;
72337;SDS011;60294;64.134;-21.862;2022-09-06T03:02:57;4.90;;;1.20;;
72337;SDS011;60294;64.134;-21.862;2022-09-06T03:05:24;3.90;;;1.33;;
72337;SDS011;60294;64.134;-21.862;2022-09-06T03:07:51;6.50;;;0.98;;
72337;SDS011;60294;64.134;-21.862;2022-09-06T03:10:18;5.47;;;1.17;;
72337;SDS011;60294;64.134;-21.862;2022-09-06T03:12:45;1.33;;;0.90;;
72337;SDS011;60294;64.134;-21.862;2022-09-06T03:15:11;5.53;;;1.23;;
72337;SDS011;60294;64.134;-21.862;2022-09-06T03:17:39;1.88;;;1.02;;
72337;SDS011;60294;64.134;-21.862;2022-09-06T03:20:05;2.35;;;0.90;;
72337;SDS011;60294;64.134;-21.862;2022-09-06T03:22:34;1.55;;;1.08;;
72337;SDS011;60294;64.134;-21.862;2022-09-06T03:25:00;2.50;;;1.00;;
72337;SDS011;60294;64.134;-21.862;2022-09-06T03:27:26;1.40;;;1.00;;
72337;SDS011;60294;64.134;-21.862;2022-09-06T03:29:52;4.05;;;1.02;;
72337;SDS011;60294;64.134;-21.862;2022-09-06T03:32:18;3.45;;;1.08;;
72337;SDS011;60294;64.134;-21.862;2022-09-06T03:34:43;1.50;;;1.08;;
72337;SDS011;60294;64.134;-21.862;2022-09-06T03:37:09;2.45;;;1.20;;
72337;SDS011;60294;64.134;-21.862;2022-09-06T03:39:35;3.20;;;1.05;;
72337;SDS011;60294;64.134;-21.862;2022-09-06T03:42:01;4.40;;;1.50;;
72337;SDS011;60294;64.134;-21.862;2022-09-06T03:44:27;4.35;;;1.55;;
72337;SDS011;60294;64.134;-21.862;2022-09-06T03:46:52;1.42;;;0.98;;
72337;SDS011;60294;64.134;-21.862;2022-09-06T03:49:18;1.27;;;0.65;;
72337;SDS011;60294;64.134;-21.862;2022-09-06T03:51:44;3.40;;;1.00;;
72337;SDS011;60294;64.134;-21.862;2022-09-06T03:54:10;1.65;;;1.10;;
72337;SDS011;60294;64.134;-21.862;2022-09-06T03:56:36;2.50;;;1.10;;
72337;SDS011;60294;64.134;-21.862;2022-09-06T03:59:02;1.70;;;1.00;;
72337;SDS011;60294;64.134;-21.862;2022-09-06T04:01:28;3.05;;;1.17;;
72337;SDS011;60294;64.134;-21.862;2022-09-06T04:03:54;1.58;;;0.90;;
72337;SDS011;60294;64.134;-21.862;2022-09-06T04:06:19;2.22;;;1.10;;
72337;SDS011;60294;64.134;-21.862;2022-09-06T04:08:45;5.20;;;1.38;;
72337;SDS011;60294;64.134;-21.862;2022-09-06T04:11:11;1.83;;;1.10;;
72337;SDS011;60294;64.134;-21.862;2022-09-06T04:13:37;2.83;;;1.15;;
72337;SDS011;60294;64.134;-21.862;2022-09-06T04:16:03;1.42;;;0.90;;
72337;SDS011;60294;64.134;-21.862;2022-09-06T04:18:30;2.05;;;1.00;;
72337;SDS011;60294;64.134;-21.862;2022-09-06T04:20:56;1.35;;;1.00;;
72337;SDS011;60294;64.134;-21.862;2022-09-06T04:23:23;3.25;;;1.17;;
72337;SDS011;60294;64.134;-21.862;2022-09-06T04:25:51;2.88;;;1.27;;
72337;SDS011;60294;64.134;-21.862;2022-09-06T04:28:19;1.17;;;0.95;;
72337;SDS011;60294;64.134;-21.862;2022-09-06T04:30:55;3.75;;;1.30;;
72337;SDS011;60294;64.134;-21.862;2022-09-06T04:33:23;1.25;;;0.80;;
72337;SDS011;60294;64.134;-21.862;2022-09-06T04:35:50;1.98;;;0.82;;
72337;SDS011;60294;64.134;-21.862;2022-09-06T04:38:23;1.52;;;1.23;;
72337;SDS011;60294;64.134;-21.862;2022-09-06T04:40:50;1.30;;;1.00;;
72337;SDS011;60294;64.134;-21.862;2022-09-06T04:43:16;1.13;;;0.77;;
72337;SDS011;60294;64.134;-21.862;2022-09-06T04:45:43;3.10;;;1.38;;
72337;SDS011;60294;64.134;-21.862;2022-09-06T04:48:09;1.50;;;1.10;;
72337;SDS011;60294;64.134;-21.862;2022-09-06T04:50:35;2.35;;;1.02;;
72337;SDS011;60294;64.134;-21.862;2022-09-06T04:53:02;1.25;;;1.00;;
72337;SDS011;60294;64.134;-21.862;2022-09-06T04:55:28;2.25;;;1.30;;
72337;SDS011;60294;64.134;-21.862;2022-09-06T04:57:55;4.57;;;0.98;;
72337;SDS011;60294;64.134;-21.862;2022-09-06T05:00:25;4.05;;;1.33;;
72337;SDS011;60294;64.134;-21.862;2022-09-06T05:02:51;1.38;;;0.93;;
72337;SDS011;60294;64.134;-21.862;2022-09-06T05:05:17;9.70;;;1.08;;
72337;SDS011;60294;64.134;-21.862;2022-09-06T05:07:43;2.25;;;1.27;;
72337;SDS011;60294;64.134;-21.862;2022-09-06T05:10:09;2.33;;;1.02;;
72337;SDS011;60294;64.134;-21.862;2022-09-06T05:12:35;6.90;;;1.35;;
72337;SDS011;60294;64.134;-21.862;2022-09-06T05:15:00;2.85;;;1.13;;
72337;SDS011;60294;64.134;-21.862;2022-09-06T05:17:26;5.20;;;1.50;;
72337;SDS011;60294;64.134;-21.862;2022-09-06T05:19:52;1.63;;;1.00;;
72337;SDS011;60294;64.134;-21.862;2022-09-06T05:22:18;2.38;;;1.25;;
72337;SDS011;60294;64.134;-21.862;2022-09-06T05:24:43;3.03;;;1.20;;
72337;SDS011;60294;64.134;-21.862;2022-09-06T05:27:10;2.15;;;1.35;;
72337;SDS011;60294;64.134;-21.862;2022-09-06T05:29:37;2.55;;;1.00;;
72337;SDS011;60294;64.134;-21.862;2022-09-06T05:32:03;2.00;;;1.00;;
72337;SDS011;60294;64.134;-21.862;2022-09-06T05:34:29;1.33;;;0.95;;
72337;SDS011;60294;64.134;-21.862;2022-09-06T05:36:54;1.85;;;1.10;;
72337;SDS011;60294;64.134;-21.862;2022-09-06T05:39:20;1.83;;;1.20;;
72337;SDS011;60294;64.134;-21.862;2022-09-06T05:41:47;3.08;;;1.20;;
72337;SDS011;60294;64.134;-21.862;2022-09-06T05:44:12;1.67;;;1.08;;
72337;SDS011;60294;64.134;-21.862;2022-09-06T05:46:42;2.90;;;1.20;;
72337;SDS011;60294;64.134;-21.862;2022-09-06T05:49:09;1.40;;;1.10;;
72337;SDS011;60294;64.134;-21.862;2022-09-06T05:51:36;2.22;;;1.17;;
72337;SDS011;60294;64.134;-21.862;2022-09-06T05:54:01;2.67;;;1.10;;
72337;SDS011;60294;64.134;-21.862;2022-09-06T05:56:27;2.50;;;1.10;;
72337;SDS011;60294;64.134;-21.862;2022-09-06T05:58:53;3.55;;;1.13;;
72337;SDS011;60294;64.134;-21.862;2022-09-06T06:01:20;2.75;;;1.30;;
72337;SDS011;60294;64.134;-21.862;2022-09-06T06:03:51;2.22;;;1.25;;
72337;SDS011;60294;64.134;-21.862;2022-09-06T06:06:22;3.75;;;1.20;;
72337;SDS011;60294;64.134;-21.862;2022-09-06T06:08:49;3.42;;;1.00;;
72337;SDS011;60294;64.134;-21.862;2022-09-06T06:11:15;2.17;;;1.15;;
72337;SDS011;60294;64.134;-21.862;2022-09-06T06:13:41;1.83;;;1.30;;
72337;SDS011;60294;64.134;-21.862;2022-09-06T06:16:08;2.05;;;1.10;;
72337;SDS011;60294;64.134;-21.862;2022-09-06T06:18:36;3.13;;;1.17;;
72337;SDS011;60294;64.134;-21.862;2022-09-06T06:21:08;1.88;;;1.15;;
72337;SDS011;60294;64.134;-21.862;2022-09-06T06:23:41;5.80;;;1.33;;
72337;SDS011;60294;64.134;-21.862;2022-09-06T06:26:09;1.70;;;1.07;;
72337;SDS011;60294;64.134;-21.862;2022-09-06T06:28:36;1.25;;;0.98;;
72337;SDS011;60294;64.134;-21.862;2022-09-06T06:31:03;2.13;;;1.10;;
72337;SDS011;60294;64.134;-21.862;2022-09-06T06:33:30;2.25;;;1.20;;
72337;SDS011;60294;64.134;-21.862;2022-09-06T06:35:57;2.05;;;1.30;;
72337;SDS011;60294;64.134;-21.862;2022-09-06T06:38:31;4.18;;;1.45;;
72337;SDS011;60294;64.134;-21.862;2022-09-06T06:40:58;2.08;;;1.00;;
72337;SDS011;60294;64.134;-21.862;2022-09-06T06:43:25;1.33;;;0.90;;
72337;SDS011;60294;64.134;-21.862;2022-09-06T06:45:51;1.45;;;1.10;;
72337;SDS011;60294;64.134;-21.862;2022-09-06T06:48:17;1.48;;;1.00;;
72337;SDS011;60294;64.134;-21.862;2022-09-06T06:50:43;2.17;;;1.15;;
72337;SDS011;60294;64.134;-21.862;2022-09-06T06:53:09;2.10;;;1.05;;
72337;SDS011;60294;64.134;-21.862;2022-09-06T06:55:35;3.10;;;1.27;;
72337;SDS011;60294;64.134;-21.862;2022-09-06T06:58:01;1.40;;;1.10;;
72337;SDS011;60294;64.134;-21.862;2022-09-06T07:00:27;6.93;;;1.33;;
72337;SDS011;60294;64.134;-21.862;2022-09-06T07:02:53;2.38;;;1.25;;
72337;SDS011;60294;64.134;-21.862;2022-09-06T07:05:23;4.57;;;1.17;;
72337;SDS011;60294;64.134;-21.862;2022-09-06T07:07:50;1.63;;;1.02;;
72337;SDS011;60294;64.134;-21.862;2022-09-06T07:10:16;5.32;;;0.90;;
72337;SDS011;60294;64.134;-21.862;2022-09-06T07:12:41;1.55;;;1.20;;
72337;SDS011;60294;64.134;-21.862;2022-09-06T07:15:07;1.58;;;1.00;;
72337;SDS011;60294;64.134;-21.862;2022-09-06T07:17:33;5.00;;;1.30;;
72337;SDS011;60294;64.134;-21.862;2022-09-06T07:19:59;2.03;;;1.10;;
72337;SDS011;60294;64.134;-21.862;2022-09-06T07:22:25;2.03;;;1.20;;
72337;SDS011;60294;64.134;-21.862;2022-09-06T07:24:51;6.32;;;1.50;;
72337;SDS011;60294;64.134;-21.862;2022-09-06T07:27:17;2.65;;;1.17;;
72337;SDS011;60294;64.134;-21.862;2022-09-06T07:29:43;1.70;;;1.10;;
72337;SDS011;60294;64.134;-21.862;2022-09-06T07:32:08;2.38;;;1.30;;
72337;SDS011;60294;64.134;-21.862;2022-09-06T07:34:34;3.22;;;1.30;;
72337;SDS011;60294;64.134;-21.862;2022-09-06T07:37:01;1.75;;;1.00;;
72337;SDS011;60294;64.134;-21.862;2022-09-06T07:39:28;4.18;;;1.40;;
72337;SDS011;60294;64.134;-21.862;2022-09-06T07:41:53;1.77;;;0.90;;
72337;SDS011;60294;64.134;-21.862;2022-09-06T07:44:19;2.80;;;1.33;;
72337;SDS011;60294;64.134;-21.862;2022-09-06T07:46:45;2.90;;;1.27;;
72337;SDS011;60294;64.134;-21.862;2022-09-06T07:49:11;3.20;;;1.50;;
72337;SDS011;60294;64.134;-21.862;2022-09-06T07:51:37;5.80;;;1.50;;
72337;SDS011;60294;64.134;-21.862;2022-09-06T07:54:03;3.13;;;1.20;;
72337;SDS011;60294;64.134;-21.862;2022-09-06T07:56:29;3.42;;;1.20;;
72337;SDS011;60294;64.134;-21.862;2022-09-06T07:58:55;3.42;;;1.33;;
72337;SDS011;60294;64.134;-21.862;2022-09-06T08:01:25;2.85;;;1.63;;
72337;SDS011;60294;64.134;-21.862;2022-09-06T08:03:52;4.65;;;1.60;;
72337;SDS011;60294;64.134;-21.862;2022-09-06T08:06:18;5.32;;;1.50;;
72337;SDS011;60294;64.134;-21.862;2022-09-06T08:08:45;4.70;;;1.67;;
72337;SDS011;60294;64.134;-21.862;2022-09-06T08:11:11;3.28;;;1.77;;
72337;SDS011;60294;64.134;-21.862;2022-09-06T08:13:37;7.45;;;1.92;;
72337;SDS011;60294;64.134;-21.862;2022-09-06T08:16:04;3.90;;;2.30;;
72337;SDS011;60294;64.134;-21.862;2022-09-06T08:18:32;3.38;;;2.03;;
72337;SDS011;60294;64.134;-21.862;2022-09-06T08:23:40;6.13;;;2.17;;
72337;SDS011;60294;64.134;-21.862;2022-09-06T08:28:43;6.10;;;2.20;;
72337;SDS011;60294;64.134;-21.862;2022-09-06T08:31:13;3.13;;;1.50;;
72337;SDS011;60294;64.134;-21.862;2022-09-06T08:33:40;3.10;;;1.80;;
72337;SDS011;60294;64.134;-21.862;2022-09-06T08:36:07;4.65;;;1.98;;
72337;SDS011;60294;64.134;-21.862;2022-09-06T08:38:34;5.82;;;1.85;;
72337;SDS011;60294;64.134;-21.862;2022-09-06T08:41:08;5.03;;;2.40;;
72337;SDS011;60294;64.134;-21.862;2022-09-06T08:44:09;4.63;;;1.70;;
72337;SDS011;60294;64.134;-21.862;2022-09-06T08:46:44;2.78;;;1.70;;
72337;SDS011;60294;64.134;-21.862;2022-09-06T08:49:16;4.70;;;2.30;;
72337;SDS011;60294;64.134;-21.862;2022-09-06T08:57:38;4.03;;;2.17;;
72337;SDS011;60294;64.134;-21.862;2022-09-06T09:00:24;7.30;;;2.60;;
72337;SDS011;60294;64.134;-21.862;2022-09-06T09:05:32;4.40;;;2.50;;
72337;SDS011;60294;64.134;-21.862;2022-09-06T09:08:20;5.13;;;2.35;;
72337;SDS011;60294;64.134;-21.862;2022-09-06T09:13:34;3.38;;;2.20;;
72337;SDS011;60294;64.134;-21.862;2022-09-06T09:16:03;5.15;;;3.50;;
72337;SDS011;60294;64.134;-21.862;2022-09-06T09:18:31;9.98;;;3.38;;
72337;SDS011;60294;64.134;-21.862;2022-09-06T09:21:00;6.35;;;2.92;;
72337;SDS011;60294;64.134;-21.862;2022-09-06T09:23:27;5.40;;;2.90;;
72337;SDS011;60294;64.134;-21.862;2022-09-06T09:25:55;8.65;;;2.75;;
72337;SDS011;60294;64.134;-21.862;2022-09-06T09:28:26;7.85;;;2.80;;
72337;SDS011;60294;64.134;-21.862;2022-09-06T09:30:53;9.45;;;2.90;;
72337;SDS011;60294;64.134;-21.862;2022-09-06T09:33:21;5.07;;;2.30;;
72337;SDS011;60294;64.134;-21.862;2022-09-06T09:35:49;7.00;;;2.78;;
72337;SDS011;60294;64.134;-21.862;2022-09-06T09:38:20;5.95;;;3.38;;
72337;SDS011;60294;64.134;-21.862;2022-09-06T09:43:33;6.65;;;3.50;;
72337;SDS011;60294;64.134;-21.862;2022-09-06T09:46:11;7.90;;;3.67;;
72337;SDS011;60294;64.134;-21.862;2022-09-06T09:48:42;7.32;;;3.60;;
72337;SDS011;60294;64.134;-21.862;2022-09-06T09:51:30;5.25;;;3.17;;
72337;SDS011;60294;64.134;-21.862;2022-09-06T09:54:00;8.43;;;3.50;;
72337;SDS011;60294;64.134;-21.862;2022-09-06T09:56:31;6.20;;;3.60;;
72337;SDS011;60294;64.134;-21.862;2022-09-06T09:58:58;6.85;;;3.70;;
72337;SDS011;60294;64.134;-21.862;2022-09-06T10:01:29;10.02;;;4.28;;
72337;SDS011;60294;64.134;-21.862;2022-09-06T10:04:17;5.35;;;3.35;;
72337;SDS011;60294;64.134;-21.862;2022-09-06T10:06:47;9.40;;;3.63;;
72337;SDS011;60294;64.134;-21.862;2022-09-06T10:09:14;5.93;;;3.88;;
72337;SDS011;60294;64.134;-21.862;2022-09-06T10:11:48;8.27;;;4.13;;
72337;SDS011;60294;64.134;-21.862;2022-09-06T10:14:26;8.48;;;4.57;;
72337;SDS011;60294;64.134;-21.862;2022-09-06T10:16:56;5.88;;;3.13;;
72337;SDS011;60294;64.134;-21.862;2022-09-06T10:19:39;9.30;;;4.70;;
72337;SDS011;60294;64.134;-21.862;2022-09-06T10:22:11;6.90;;;4.05;;
72337;SDS011;60294;64.134;-21.862;2022-09-06T10:27:29;8.18;;;3.50;;
72337;SDS011;60294;64.134;-21.862;2022-09-06T10:32:38;4.13;;;2.58;;
72337;SDS011;60294;64.134;-21.862;2022-09-06T10:35:29;5.78;;;2.72;;
72337;SDS011;60294;64.134;-21.862;2022-09-06T10:40:44;6.47;;;2.33;;
72337;SDS011;60294;64.134;-21.862;2022-09-06T10:43:16;3.55;;;2.42;;
72337;SDS011;60294;64.134;-21.862;2022-09-06T10:45:44;5.70;;;2.45;;
72337;SDS011;60294;64.134;-21.862;2022-09-06T10:54:06;4.47;;;2.25;;
72337;SDS011;60294;64.134;-21.862;2022-09-06T10:56:39;8.52;;;2.47;;
72337;SDS011;60294;64.134;-21.862;2022-09-06T11:02:09;4.80;;;2.00;;
72337;SDS011;60294;64.134;-21.862;2022-09-06T11:04:47;2.80;;;1.85;;
72337;SDS011;60294;64.134;-21.862;2022-09-06T11:07:26;4.97;;;2.13;;
72337;SDS011;60294;64.134;-21.862;2022-09-06T11:09:58;4.55;;;2.25;;
72337;SDS011;60294;64.134;-21.862;2022-09-06T11:15:18;4.18;;;2.72;;
72337;SDS011;60294;64.134;-21.862;2022-09-06T11:17:48;5.22;;;2.67;;
72337;SDS011;60294;64.134;-21.862;2022-09-06T11:28:39;3.22;;;2.00;;
72337;SDS011;60294;64.134;-21.862;2022-09-06T11:31:27;3.00;;;2.10;;
72337;SDS011;60294;64.134;-21.862;2022-09-06T11:34:09;4.93;;;2.83;;
72337;SDS011;60294;64.134;-21.862;2022-09-06T11:36:46;6.90;;;2.47;;
72337;SDS011;60294;64.134;-21.862;2022-09-06T11:39:22;6.03;;;2.42;;
72337;SDS011;60294;64.134;-21.862;2022-09-06T11:55:41;5.10;;;2.17;;
72337;SDS011;60294;64.134;-21.862;2022-09-06T12:06:23;3.47;;;1.90;;
72337;SDS011;60294;64.134;-21.862;2022-09-06T12:08:55;3.50;;;1.98;;
72337;SDS011;60294;64.134;-21.862;2022-09-06T12:11:41;5.13;;;2.00;;
72337;SDS011;60294;64.134;-21.862;2022-09-06T12:19:40;5.38;;;2.08;;
72337;SDS011;60294;64.134;-21.862;2022-09-06T12:24:58;3.20;;;1.85;;
72337;SDS011;60294;64.134;-21.862;2022-09-06T12:28:00;6.85;;;2.35;;
72337;SDS011;60294;64.134;-21.862;2022-09-06T12:30:37;4.50;;;1.63;;
72337;SDS011;60294;64.134;-21.862;2022-09-06T12:33:30;2.65;;;1.70;;
72337;SDS011;60294;64.134;-21.862;2022-09-06T12:36:16;4.38;;;1.77;;
72337;SDS011;60294;64.134;-21.862;2022-09-06T12:38:57;2.70;;;1.50;;
72337;SDS011;60294;64.134;-21.862;2022-09-06T12:41:44;7.10;;;2.20;;
72337;SDS011;60294;64.134;-21.862;2022-09-06T12:44:13;5.47;;;1.88;;
72337;SDS011;60294;64.134;-21.862;2022-09-06T12:46:45;10.20;;;3.28;;
72337;SDS011;60294;64.134;-21.862;2022-09-06T12:49:13;4.78;;;2.20;;
72337;SDS011;60294;64.134;-21.862;2022-09-06T12:51:43;7.82;;;3.40;;
72337;SDS011;60294;64.134;-21.862;2022-09-06T12:54:22;4.53;;;2.15;;
72337;SDS011;60294;64.134;-21.862;2022-09-06T12:56:50;5.38;;;2.40;;
72337;SDS011;60294;64.134;-21.862;2022-09-06T12:59:21;8.20;;;2.20;;
72337;SDS011;60294;64.134;-21.862;2022-09-06T13:01:51;6.55;;;2.97;;
72337;SDS011;60294;64.134;-21.862;2022-09-06T13:04:24;6.65;;;2.47;;
72337;SDS011;60294;64.134;-21.862;2022-09-06T13:06:57;3.50;;;1.73;;
72337;SDS011;60294;64.134;-21.862;2022-09-06T13:09:25;3.65;;;2.50;;
72337;SDS011;60294;64.134;-21.862;2022-09-06T13:11:53;4.57;;;2.38;;
72337;SDS011;60294;64.134;-21.862;2022-09-06T13:14:28;3.75;;;2.30;;
72337;SDS011;60294;64.134;-21.862;2022-09-06T13:16:56;5.82;;;2.13;;
72337;SDS011;60294;64.134;-21.862;2022-09-06T13:19:57;4.30;;;2.30;;
72337;SDS011;60294;64.134;-21.862;2022-09-06T13:22:35;3.53;;;2.30;;
72337;SDS011;60294;64.134;-21.862;2022-09-06T13:25:15;9.38;;;2.25;;
72337;SDS011;60294;64.134;-21.862;2022-09-06T13:27:45;3.33;;;1.90;;
72337;SDS011;60294;64.134;-21.862;2022-09-06T13:30:33;7.70;;;2.42;;
72337;SDS011;60294;64.134;-21.862;2022-09-06T13:33:00;4.45;;;2.40;;
72337;SDS011;60294;64.134;-21.862;2022-09-06T13:35:28;5.45;;;2.08;;
72337;SDS011;60294;64.134;-21.862;2022-09-06T13:40:55;6.93;;;2.55;;
72337;SDS011;60294;64.134;-21.862;2022-09-06T13:43:21;4.97;;;2.35;;
72337;SDS011;60294;64.134;-21.862;2022-09-06T13:45:48;7.28;;;2.30;;
72337;SDS011;60294;64.134;-21.862;2022-09-06T13:48:27;3.30;;;1.70;;
72337;SDS011;60294;64.134;-21.862;2022-09-06T13:50:53;3.60;;;1.60;;
72337;SDS011;60294;64.134;-21.862;2022-09-06T13:53:19;4.55;;;1.95;;
72337;SDS011;60294;64.134;-21.862;2022-09-06T13:55:44;5.47;;;1.50;;
72337;SDS011;60294;64.134;-21.862;2022-09-06T13:58:11;3.53;;;1.77;;
72337;SDS011;60294;64.134;-21.862;2022-09-06T14:00:37;4.18;;;1.98;;
72337;SDS011;60294;64.134;-21.862;2022-09-06T14:03:05;5.68;;;1.50;;
72337;SDS011;60294;64.134;-21.862;2022-09-06T14:05:36;1.73;;;1.10;;
72337;SDS011;60294;64.134;-21.862;2022-09-06T14:08:03;3.58;;;1.10;;
72337;SDS011;60294;64.134;-21.862;2022-09-06T14:10:29;3.17;;;1.40;;
72337;SDS011;60294;64.134;-21.862;2022-09-06T14:12:55;2.20;;;1.02;;
72337;SDS011;60294;64.134;-21.862;2022-09-06T14:15:21;3.03;;;2.00;;
72337;SDS011;60294;64.134;-21.862;2022-09-06T14:17:47;2.05;;;1.23;;
72337;SDS011;60294;64.134;-21.862;2022-09-06T14:20:13;4.80;;;1.02;;
72337;SDS011;60294;64.134;-21.862;2022-09-06T14:22:39;2.55;;;1.27;;
72337;SDS011;60294;64.134;-21.862;2022-09-06T14:25:05;2.78;;;1.23;;
72337;SDS011;60294;64.134;-21.862;2022-09-06T14:27:31;1.77;;;0.90;;
72337;SDS011;60294;64.134;-21.862;2022-09-06T14:29:56;2.70;;;1.10;;
72337;SDS011;60294;64.134;-21.862;2022-09-06T14:32:23;3.17;;;1.42;;
72337;SDS011;60294;64.134;-21.862;2022-09-06T14:34:50;2.28;;;1.35;;
72337;SDS011;60294;64.134;-21.862;2022-09-06T14:37:16;3.33;;;0.90;;
72337;SDS011;60294;64.134;-21.862;2022-09-06T14:39:41;2.67;;;1.05;;
72337;SDS011;60294;64.134;-21.862;2022-09-06T14:42:09;3.85;;;1.00;;
72337;SDS011;60294;64.134;-21.862;2022-09-06T14:44:34;1.42;;;0.98;;
72337;SDS011;60294;64.134;-21.862;2022-09-06T14:47:00;2.25;;;1.02;;
72337;SDS011;60294;64.134;-21.862;2022-09-06T14:49:27;2.33;;;0.95;;
72337;SDS011;60294;64.134;-21.862;2022-09-06T14:51:53;1.90;;;0.77;;
72337;SDS011;60294;64.134;-21.862;2022-09-06T14:54:19;3.20;;;1.33;;
72337;SDS011;60294;64.134;-21.862;2022-09-06T14:56:44;2.42;;;0.98;;
72337;SDS011;60294;64.134;-21.862;2022-09-06T14:59:10;2.63;;;0.98;;
72337;SDS011;60294;64.134;-21.862;2022-09-06T15:01:36;1.80;;;0.95;;
72337;SDS011;60294;64.134;-21.862;2022-09-06T15:04:03;2.08;;;0.93;;
72337;SDS011;60294;64.134;-21.862;2022-09-06T15:06:31;3.90;;;0.90;;
72337;SDS011;60294;64.134;-21.862;2022-09-06T15:08:58;3.65;;;1.08;;
72337;SDS011;60294;64.134;-21.862;2022-09-06T15:11:32;2.40;;;1.50;;
72337;SDS011;60294;64.134;-21.862;2022-09-06T15:14:00;4.75;;;1.10;;
72337;SDS011;60294;64.134;-21.862;2022-09-06T15:16:27;1.13;;;0.90;;
72337;SDS011;60294;64.134;-21.862;2022-09-06T15:18:54;2.40;;;1.10;;
72337;SDS011;60294;64.134;-21.862;2022-09-06T15:21:20;2.65;;;1.13;;
72337;SDS011;60294;64.134;-21.862;2022-09-06T15:23:47;1.45;;;0.95;;
72337;SDS011;60294;64.134;-21.862;2022-09-06T15:26:13;2.85;;;0.98;;
72337;SDS011;60294;64.134;-21.862;2022-09-06T15:28:40;1.48;;;0.90;;
72337;SDS011;60294;64.134;-21.862;2022-09-06T15:31:07;2.42;;;0.77;;
72337;SDS011;60294;64.134;-21.862;2022-09-06T15:33:34;2.47;;;0.90;;
72337;SDS011;60294;64.134;-21.862;2022-09-06T15:36:00;2.00;;;0.82;;
72337;SDS011;60294;64.134;-21.862;2022-09-06T15:38:34;2.00;;;1.10;;
72337;SDS011;60294;64.134;-21.862;2022-09-06T15:43:31;1.58;;;0.70;;
72337;SDS011;60294;64.134;-21.862;2022-09-06T15:45:57;2.25;;;1.20;;
72337;SDS011;60294;64.134;-21.862;2022-09-06T15:48:25;4.97;;;1.10;;
72337;SDS011;60294;64.134;-21.862;2022-09-06T15:50:50;3.83;;;1.00;;
72337;SDS011;60294;64.134;-21.862;2022-09-06T15:53:16;3.05;;;1.05;;
72337;SDS011;60294;64.134;-21.862;2022-09-06T15:55:43;4.93;;;1.10;;
72337;SDS011;60294;64.134;-21.862;2022-09-06T15:58:24;1.80;;;0.90;;
72337;SDS011;60294;64.134;-21.862;2022-09-06T16:03:34;3.47;;;1.00;;
72337;SDS011;60294;64.134;-21.862;2022-09-06T16:06:06;2.25;;;0.95;;
72337;SDS011;60294;64.134;-21.862;2022-09-06T16:08:34;1.60;;;1.10;;
72337;SDS011;60294;64.134;-21.862;2022-09-06T16:11:04;1.80;;;0.98;;
72337;SDS011;60294;64.134;-21.862;2022-09-06T16:13:36;2.45;;;1.15;;
72337;SDS011;60294;64.134;-21.862;2022-09-06T16:16:04;2.92;;;1.00;;
72337;SDS011;60294;64.134;-21.862;2022-09-06T16:18:32;2.30;;;1.10;;
72337;SDS011;60294;64.134;-21.862;2022-09-06T16:21:06;2.05;;;1.05;;
72337;SDS011;60294;64.134;-21.862;2022-09-06T16:23:34;1.05;;;0.90;;
72337;SDS011;60294;64.134;-21.862;2022-09-06T16:26:01;2.67;;;1.10;;
72337;SDS011;60294;64.134;-21.862;2022-09-06T16:28:28;1.63;;;0.90;;
72337;SDS011;60294;64.134;-21.862;2022-09-06T16:30:59;3.88;;;1.30;;